sensor_id;sensor_type;location;lat;lon;timestamp;temperature;humidity
40454;DHT22;26160;51.858;4.398;2023-04-29T00:00:05;9.50;99.90
40454;DHT22;26160;51.858;4.398;2023-04-29T00:02:32;9.50;99.90
40454;DHT22;26160;51.858;4.398;2023-04-29T00:04:58;9.50;99.90
40454;DHT22;26160;51.858;4.398;2023-04-29T00:07:24;9.60;99.90
40454;DHT22;26160;51.858;4.398;2023-04-29T00:09:50;9.60;99.90
40454;DHT22;26160;51.858;4.398;2023-04-29T00:12:16;9.50;99.90
40454;DHT22;26160;51.858;4.398;2023-04-29T00:14:43;9.50;99.90
40454;DHT22;26160;51.858;4.398;2023-04-29T00:17:09;9.50;99.90
40454;DHT22;26160;51.858;4.398;2023-04-29T00:19:35;9.50;99.90
40454;DHT22;26160;51.858;4.398;2023-04-29T00:22:01;9.50;99.90
40454;DHT22;26160;51.858;4.398;2023-04-29T00:24:27;9.60;99.90
40454;DHT22;26160;51.858;4.398;2023-04-29T00:26:53;9.60;99.90
40454;DHT22;26160;51.858;4.398;2023-04-29T00:29:19;9.50;99.90
40454;DHT22;26160;51.858;4.398;2023-04-29T00:31:45;9.60;99.90
40454;DHT22;26160;51.858;4.398;2023-04-29T00:34:11;9.60;99.90
40454;DHT22;26160;51.858;4.398;2023-04-29T00:36:37;9.60;99.90
40454;DHT22;26160;51.858;4.398;2023-04-29T00:39:03;9.60;99.90
40454;DHT22;26160;51.858;4.398;2023-04-29T00:41:30;9.50;99.90
40454;DHT22;26160;51.858;4.398;2023-04-29T00:43:57;9.50;99.90
40454;DHT22;26160;51.858;4.398;2023-04-29T00:46:23;9.40;99.90
40454;DHT22;26160;51.858;4.398;2023-04-29T00:48:49;9.50;99.90
40454;DHT22;26160;51.858;4.398;2023-04-29T00:51:16;9.50;99.90
40454;DHT22;26160;51.858;4.398;2023-04-29T00:53:42;9.50;99.90
40454;DHT22;26160;51.858;4.398;2023-04-29T00:56:09;9.50;99.90
40454;DHT22;26160;51.858;4.398;2023-04-29T00:58:36;9.40;99.90
40454;DHT22;26160;51.858;4.398;2023-04-29T01:03:40;9.40;99.90
40454;DHT22;26160;51.858;4.398;2023-04-29T01:06:23;9.40;99.90
40454;DHT22;26160;51.858;4.398;2023-04-29T01:14:22;9.40;99.90
40454;DHT22;26160;51.858;4.398;2023-04-29T01:17:16;9.40;99.90
40454;DHT22;26160;51.858;4.398;2023-04-29T01:19:54;9.50;99.90
40454;DHT22;26160;51.858;4.398;2023-04-29T01:22:21;9.40;99.90
40454;DHT22;26160;51.858;4.398;2023-04-29T01:24:48;9.30;99.90
40454;DHT22;26160;51.858;4.398;2023-04-29T01:33:03;9.20;99.90
40454;DHT22;26160;51.858;4.398;2023-04-29T01:35:44;9.20;99.90
40454;DHT22;26160;51.858;4.398;2023-04-29T01:38:38;9.20;99.90
40454;DHT22;26160;51.858;4.398;2023-04-29T01:43:38;9.20;99.90
40454;DHT22;26160;51.858;4.398;2023-04-29T01:46:08;9.20;99.90
40454;DHT22;26160;51.858;4.398;2023-04-29T01:48:35;9.20;99.90
40454;DHT22;26160;51.858;4.398;2023-04-29T01:51:02;9.20;99.90
40454;DHT22;26160;51.858;4.398;2023-04-29T01:53:28;9.20;99.90
40454;DHT22;26160;51.858;4.398;2023-04-29T01:55:54;9.20;99.90
40454;DHT22;26160;51.858;4.398;2023-04-29T01:58:21;9.20;99.90
40454;DHT22;26160;51.858;4.398;2023-04-29T02:00:47;9.20;99.90
40454;DHT22;26160;51.858;4.398;2023-04-29T02:03:13;9.20;99.90
40454;DHT22;26160;51.858;4.398;2023-04-29T02:05:39;9.20;99.90
40454;DHT22;26160;51.858;4.398;2023-04-29T02:08:06;9.20;99.90
40454;DHT22;26160;51.858;4.398;2023-04-29T02:10:32;9.20;99.90
40454;DHT22;26160;51.858;4.398;2023-04-29T02:12:58;9.20;99.90
40454;DHT22;26160;51.858;4.398;2023-04-29T02:15:27;9.20;99.90
40454;DHT22;26160;51.858;4.398;2023-04-29T02:17:54;9.20;99.90
40454;DHT22;26160;51.858;4.398;2023-04-29T02:20:20;9.20;99.90
40454;DHT22;26160;51.858;4.398;2023-04-29T02:22:46;9.20;99.90
40454;DHT22;26160;51.858;4.398;2023-04-29T02:25:12;9.20;99.90
40454;DHT22;26160;51.858;4.398;2023-04-29T02:27:38;9.20;99.90
40454;DHT22;26160;51.858;4.398;2023-04-29T02:30:05;9.20;99.90
40454;DHT22;26160;51.858;4.398;2023-04-29T02:32:31;9.20;99.90
40454;DHT22;26160;51.858;4.398;2023-04-29T02:34:57;9.30;99.90
40454;DHT22;26160;51.858;4.398;2023-04-29T02:37:24;9.20;99.90
40454;DHT22;26160;51.858;4.398;2023-04-29T02:39:50;9.30;99.90
40454;DHT22;26160;51.858;4.398;2023-04-29T02:42:16;9.30;99.90
40454;DHT22;26160;51.858;4.398;2023-04-29T02:44:42;9.30;99.90
40454;DHT22;26160;51.858;4.398;2023-04-29T02:47:08;9.30;99.90
40454;DHT22;26160;51.858;4.398;2023-04-29T02:49:34;9.30;99.90
40454;DHT22;26160;51.858;4.398;2023-04-29T02:52:01;9.30;99.90
40454;DHT22;26160;51.858;4.398;2023-04-29T02:54:27;9.30;99.90
40454;DHT22;26160;51.858;4.398;2023-04-29T02:56:53;9.40;99.90
40454;DHT22;26160;51.858;4.398;2023-04-29T02:59:19;9.40;99.90
40454;DHT22;26160;51.858;4.398;2023-04-29T03:01:45;9.40;99.90
40454;DHT22;26160;51.858;4.398;2023-04-29T03:04:12;9.40;99.90
40454;DHT22;26160;51.858;4.398;2023-04-29T03:06:38;9.40;99.90
40454;DHT22;26160;51.858;4.398;2023-04-29T03:09:05;9.40;99.90
40454;DHT22;26160;51.858;4.398;2023-04-29T03:11:31;9.40;99.90
40454;DHT22;26160;51.858;4.398;2023-04-29T03:13:57;9.40;99.90
40454;DHT22;26160;51.858;4.398;2023-04-29T03:16:23;9.40;99.90
40454;DHT22;26160;51.858;4.398;2023-04-29T03:18:49;9.40;99.90
40454;DHT22;26160;51.858;4.398;2023-04-29T03:21:16;9.40;99.90
40454;DHT22;26160;51.858;4.398;2023-04-29T03:23:42;9.40;99.90
40454;DHT22;26160;51.858;4.398;2023-04-29T03:26:09;9.40;99.90
40454;DHT22;26160;51.858;4.398;2023-04-29T03:28:36;9.40;99.90
40454;DHT22;26160;51.858;4.398;2023-04-29T03:31:02;9.40;99.90
40454;DHT22;26160;51.858;4.398;2023-04-29T03:33:28;9.50;99.90
40454;DHT22;26160;51.858;4.398;2023-04-29T03:35:54;9.50;99.90
40454;DHT22;26160;51.858;4.398;2023-04-29T03:38:20;9.50;99.90
40454;DHT22;26160;51.858;4.398;2023-04-29T03:40:47;9.50;99.90
40454;DHT22;26160;51.858;4.398;2023-04-29T03:43:13;9.50;99.90
40454;DHT22;26160;51.858;4.398;2023-04-29T03:45:39;9.50;99.90
40454;DHT22;26160;51.858;4.398;2023-04-29T03:48:05;9.40;99.90
40454;DHT22;26160;51.858;4.398;2023-04-29T03:50:32;9.40;99.90
40454;DHT22;26160;51.858;4.398;2023-04-29T03:52:58;9.40;99.90
40454;DHT22;26160;51.858;4.398;2023-04-29T03:55:25;9.50;99.90
40454;DHT22;26160;51.858;4.398;2023-04-29T03:57:51;9.50;99.90
40454;DHT22;26160;51.858;4.398;2023-04-29T04:00:17;9.50;99.90
40454;DHT22;26160;51.858;4.398;2023-04-29T04:02:43;9.50;99.90
40454;DHT22;26160;51.858;4.398;2023-04-29T04:05:09;9.50;99.90
40454;DHT22;26160;51.858;4.398;2023-04-29T04:07:36;9.50;99.90
40454;DHT22;26160;51.858;4.398;2023-04-29T04:10:02;9.50;99.90
40454;DHT22;26160;51.858;4.398;2023-04-29T04:12:28;9.50;99.90
40454;DHT22;26160;51.858;4.398;2023-04-29T04:14:54;9.50;99.90
40454;DHT22;26160;51.858;4.398;2023-04-29T04:17:20;9.50;99.90
40454;DHT22;26160;51.858;4.398;2023-04-29T04:19:46;9.60;99.90
40454;DHT22;26160;51.858;4.398;2023-04-29T04:22:12;9.60;99.90
40454;DHT22;26160;51.858;4.398;2023-04-29T04:24:38;9.60;99.90
40454;DHT22;26160;51.858;4.398;2023-04-29T04:27:05;9.60;99.90
40454;DHT22;26160;51.858;4.398;2023-04-29T04:29:31;9.60;99.90
40454;DHT22;26160;51.858;4.398;2023-04-29T04:31:58;9.60;99.90
40454;DHT22;26160;51.858;4.398;2023-04-29T04:34:24;9.70;99.90
40454;DHT22;26160;51.858;4.398;2023-04-29T04:36:51;9.60;99.90
40454;DHT22;26160;51.858;4.398;2023-04-29T04:39:17;9.60;99.90
40454;DHT22;26160;51.858;4.398;2023-04-29T04:41:43;9.60;99.90
40454;DHT22;26160;51.858;4.398;2023-04-29T04:44:09;9.60;99.90
40454;DHT22;26160;51.858;4.398;2023-04-29T04:46:35;9.70;99.90
40454;DHT22;26160;51.858;4.398;2023-04-29T04:49:02;9.70;99.90
40454;DHT22;26160;51.858;4.398;2023-04-29T04:51:28;9.70;99.90
40454;DHT22;26160;51.858;4.398;2023-04-29T04:53:54;9.70;99.90
40454;DHT22;26160;51.858;4.398;2023-04-29T04:56:20;9.70;99.90
40454;DHT22;26160;51.858;4.398;2023-04-29T04:58:47;9.70;99.90
40454;DHT22;26160;51.858;4.398;2023-04-29T05:01:13;9.70;99.90
40454;DHT22;26160;51.858;4.398;2023-04-29T05:03:39;9.80;99.90
40454;DHT22;26160;51.858;4.398;2023-04-29T05:06:05;9.80;99.90
40454;DHT22;26160;51.858;4.398;2023-04-29T05:08:31;9.80;99.90
40454;DHT22;26160;51.858;4.398;2023-04-29T05:10:57;9.80;99.90
40454;DHT22;26160;51.858;4.398;2023-04-29T05:13:23;9.80;99.90
40454;DHT22;26160;51.858;4.398;2023-04-29T05:15:53;9.80;99.90
40454;DHT22;26160;51.858;4.398;2023-04-29T05:18:19;9.90;99.90
40454;DHT22;26160;51.858;4.398;2023-04-29T05:20:45;9.90;99.90
40454;DHT22;26160;51.858;4.398;2023-04-29T05:23:11;9.90;99.90
40454;DHT22;26160;51.858;4.398;2023-04-29T05:25:37;10.00;99.90
40454;DHT22;26160;51.858;4.398;2023-04-29T05:28:06;10.00;99.90
40454;DHT22;26160;51.858;4.398;2023-04-29T05:30:32;10.00;99.90
40454;DHT22;26160;51.858;4.398;2023-04-29T05:32:58;10.10;99.90
40454;DHT22;26160;51.858;4.398;2023-04-29T05:35:24;10.00;99.90
40454;DHT22;26160;51.858;4.398;2023-04-29T05:37:51;10.10;99.90
40454;DHT22;26160;51.858;4.398;2023-04-29T05:40:17;10.10;99.90
40454;DHT22;26160;51.858;4.398;2023-04-29T05:42:43;10.10;99.90
40454;DHT22;26160;51.858;4.398;2023-04-29T05:45:09;10.10;99.90
40454;DHT22;26160;51.858;4.398;2023-04-29T05:47:37;10.10;99.90
40454;DHT22;26160;51.858;4.398;2023-04-29T05:50:03;10.10;99.90
40454;DHT22;26160;51.858;4.398;2023-04-29T05:52:29;10.20;99.90
40454;DHT22;26160;51.858;4.398;2023-04-29T05:54:55;10.20;99.90
40454;DHT22;26160;51.858;4.398;2023-04-29T05:57:22;10.20;99.90
40454;DHT22;26160;51.858;4.398;2023-04-29T05:59:48;10.20;99.90
40454;DHT22;26160;51.858;4.398;2023-04-29T06:02:14;10.30;99.90
40454;DHT22;26160;51.858;4.398;2023-04-29T06:04:41;10.30;99.90
40454;DHT22;26160;51.858;4.398;2023-04-29T06:07:07;10.20;99.90
40454;DHT22;26160;51.858;4.398;2023-04-29T06:09:36;10.20;99.90
40454;DHT22;26160;51.858;4.398;2023-04-29T06:12:03;10.30;99.90
40454;DHT22;26160;51.858;4.398;2023-04-29T06:14:29;10.30;99.90
40454;DHT22;26160;51.858;4.398;2023-04-29T06:16:55;10.40;99.90
40454;DHT22;26160;51.858;4.398;2023-04-29T06:19:21;10.40;99.90
40454;DHT22;26160;51.858;4.398;2023-04-29T06:21:48;10.50;99.90
40454;DHT22;26160;51.858;4.398;2023-04-29T06:24:14;10.60;99.90
40454;DHT22;26160;51.858;4.398;2023-04-29T06:26:43;10.70;99.90
40454;DHT22;26160;51.858;4.398;2023-04-29T06:29:10;10.70;99.90
40454;DHT22;26160;51.858;4.398;2023-04-29T06:31:38;10.60;99.90
40454;DHT22;26160;51.858;4.398;2023-04-29T06:34:04;10.60;99.90
40454;DHT22;26160;51.858;4.398;2023-04-29T06:36:30;10.60;99.90
40454;DHT22;26160;51.858;4.398;2023-04-29T06:38:57;10.60;99.90
40454;DHT22;26160;51.858;4.398;2023-04-29T06:41:23;10.70;99.90
40454;DHT22;26160;51.858;4.398;2023-04-29T06:43:49;10.80;99.90
40454;DHT22;26160;51.858;4.398;2023-04-29T06:46:15;10.80;99.90
40454;DHT22;26160;51.858;4.398;2023-04-29T06:48:41;10.90;99.90
40454;DHT22;26160;51.858;4.398;2023-04-29T06:51:08;10.90;99.90
40454;DHT22;26160;51.858;4.398;2023-04-29T06:53:34;11.00;99.90
40454;DHT22;26160;51.858;4.398;2023-04-29T06:56:00;11.20;99.90
40454;DHT22;26160;51.858;4.398;2023-04-29T06:58:26;11.30;99.90
40454;DHT22;26160;51.858;4.398;2023-04-29T07:00:52;11.40;99.90
40454;DHT22;26160;51.858;4.398;2023-04-29T07:03:18;11.70;99.90
40454;DHT22;26160;51.858;4.398;2023-04-29T07:05:44;11.90;99.90
40454;DHT22;26160;51.858;4.398;2023-04-29T07:08:12;11.80;99.90
40454;DHT22;26160;51.858;4.398;2023-04-29T07:10:38;11.60;99.90
40454;DHT22;26160;51.858;4.398;2023-04-29T07:13:04;11.60;99.90
40454;DHT22;26160;51.858;4.398;2023-04-29T07:15:33;11.70;99.90
40454;DHT22;26160;51.858;4.398;2023-04-29T07:18:00;11.80;99.90
40454;DHT22;26160;51.858;4.398;2023-04-29T07:20:26;12.00;99.90
40454;DHT22;26160;51.858;4.398;2023-04-29T07:22:52;12.10;99.90
40454;DHT22;26160;51.858;4.398;2023-04-29T07:25:18;12.10;99.90
40454;DHT22;26160;51.858;4.398;2023-04-29T07:27:44;12.10;99.90
40454;DHT22;26160;51.858;4.398;2023-04-29T07:30:10;12.20;99.90
40454;DHT22;26160;51.858;4.398;2023-04-29T07:32:36;12.30;99.90
40454;DHT22;26160;51.858;4.398;2023-04-29T07:35:03;12.30;99.90
40454;DHT22;26160;51.858;4.398;2023-04-29T07:37:29;12.50;99.90
40454;DHT22;26160;51.858;4.398;2023-04-29T07:39:55;12.60;99.90
40454;DHT22;26160;51.858;4.398;2023-04-29T07:42:21;12.50;99.90
40454;DHT22;26160;51.858;4.398;2023-04-29T07:44:47;12.70;99.90
40454;DHT22;26160;51.858;4.398;2023-04-29T07:47:13;13.10;99.90
40454;DHT22;26160;51.858;4.398;2023-04-29T07:49:39;13.30;99.90
40454;DHT22;26160;51.858;4.398;2023-04-29T07:52:06;13.30;99.90
40454;DHT22;26160;51.858;4.398;2023-04-29T07:54:37;13.30;99.90
40454;DHT22;26160;51.858;4.398;2023-04-29T07:57:04;13.40;99.90
40454;DHT22;26160;51.858;4.398;2023-04-29T07:59:31;13.80;99.90
40454;DHT22;26160;51.858;4.398;2023-04-29T08:01:57;14.10;99.90
40454;DHT22;26160;51.858;4.398;2023-04-29T08:04:23;13.80;99.90
40454;DHT22;26160;51.858;4.398;2023-04-29T08:06:50;13.70;99.90
40454;DHT22;26160;51.858;4.398;2023-04-29T08:09:16;13.70;99.90
40454;DHT22;26160;51.858;4.398;2023-04-29T08:11:42;13.60;99.90
40454;DHT22;26160;51.858;4.398;2023-04-29T08:14:09;13.40;99.90
40454;DHT22;26160;51.858;4.398;2023-04-29T08:16:36;13.30;99.90
40454;DHT22;26160;51.858;4.398;2023-04-29T08:19:02;13.60;99.90
40454;DHT22;26160;51.858;4.398;2023-04-29T08:21:28;14.00;99.90
40454;DHT22;26160;51.858;4.398;2023-04-29T08:23:54;14.40;99.90
40454;DHT22;26160;51.858;4.398;2023-04-29T08:26:21;14.60;99.90
40454;DHT22;26160;51.858;4.398;2023-04-29T08:28:47;14.80;99.90
40454;DHT22;26160;51.858;4.398;2023-04-29T08:31:20;14.90;99.90
40454;DHT22;26160;51.858;4.398;2023-04-29T08:33:47;14.90;99.90
40454;DHT22;26160;51.858;4.398;2023-04-29T08:36:13;14.90;99.90
40454;DHT22;26160;51.858;4.398;2023-04-29T08:38:40;14.50;99.90
40454;DHT22;26160;51.858;4.398;2023-04-29T08:41:07;14.30;99.90
40454;DHT22;26160;51.858;4.398;2023-04-29T08:43:37;14.40;99.90
40454;DHT22;26160;51.858;4.398;2023-04-29T08:46:05;15.10;99.90
40454;DHT22;26160;51.858;4.398;2023-04-29T08:48:33;15.30;99.90
40454;DHT22;26160;51.858;4.398;2023-04-29T08:51:00;14.70;99.90
40454;DHT22;26160;51.858;4.398;2023-04-29T08:53:27;14.20;99.90
40454;DHT22;26160;51.858;4.398;2023-04-29T08:55:54;13.80;99.90
40454;DHT22;26160;51.858;4.398;2023-04-29T08:58:22;13.40;99.90
40454;DHT22;26160;51.858;4.398;2023-04-29T09:00:51;13.40;99.90
40454;DHT22;26160;51.858;4.398;2023-04-29T09:03:30;13.80;99.90
40454;DHT22;26160;51.858;4.398;2023-04-29T09:05:59;14.50;99.90
40454;DHT22;26160;51.858;4.398;2023-04-29T09:08:29;15.00;99.90
40454;DHT22;26160;51.858;4.398;2023-04-29T09:10:56;15.20;99.90
40454;DHT22;26160;51.858;4.398;2023-04-29T09:13:29;15.10;99.90
40454;DHT22;26160;51.858;4.398;2023-04-29T09:15:56;15.20;99.90
40454;DHT22;26160;51.858;4.398;2023-04-29T09:21:21;15.60;99.90
40454;DHT22;26160;51.858;4.398;2023-04-29T09:23:52;15.70;99.90
40454;DHT22;26160;51.858;4.398;2023-04-29T09:26:19;15.90;99.90
40454;DHT22;26160;51.858;4.398;2023-04-29T09:28:46;16.30;99.90
40454;DHT22;26160;51.858;4.398;2023-04-29T09:31:13;16.20;99.90
40454;DHT22;26160;51.858;4.398;2023-04-29T09:33:56;16.00;99.90
40454;DHT22;26160;51.858;4.398;2023-04-29T09:39:13;16.60;99.90
40454;DHT22;26160;51.858;4.398;2023-04-29T09:44:22;16.50;99.90
40454;DHT22;26160;51.858;4.398;2023-04-29T09:47:08;16.50;99.90
40454;DHT22;26160;51.858;4.398;2023-04-29T09:49:38;17.00;99.90
40454;DHT22;26160;51.858;4.398;2023-04-29T09:52:11;16.70;99.90
40454;DHT22;26160;51.858;4.398;2023-04-29T09:54:38;16.20;99.90
40454;DHT22;26160;51.858;4.398;2023-04-29T09:57:07;15.90;99.90
40454;DHT22;26160;51.858;4.398;2023-04-29T09:59:35;15.70;99.90
40454;DHT22;26160;51.858;4.398;2023-04-29T10:02:12;15.90;99.90
40454;DHT22;26160;51.858;4.398;2023-04-29T10:04:40;16.70;99.90
40454;DHT22;26160;51.858;4.398;2023-04-29T10:07:16;16.80;99.90
40454;DHT22;26160;51.858;4.398;2023-04-29T10:09:44;16.70;99.90
40454;DHT22;26160;51.858;4.398;2023-04-29T10:12:15;16.60;99.90
40454;DHT22;26160;51.858;4.398;2023-04-29T10:15:02;16.60;99.90
40454;DHT22;26160;51.858;4.398;2023-04-29T10:20:07;16.30;99.90
40454;DHT22;26160;51.858;4.398;2023-04-29T10:22:50;16.00;99.90
40454;DHT22;26160;51.858;4.398;2023-04-29T10:25:18;15.90;99.90
40454;DHT22;26160;51.858;4.398;2023-04-29T10:27:45;16.10;99.90
40454;DHT22;26160;51.858;4.398;2023-04-29T10:30:16;16.30;99.90
40454;DHT22;26160;51.858;4.398;2023-04-29T10:32:43;16.60;99.90
40454;DHT22;26160;51.858;4.398;2023-04-29T10:35:11;16.90;99.90
40454;DHT22;26160;51.858;4.398;2023-04-29T10:37:40;16.80;99.90
40454;DHT22;26160;51.858;4.398;2023-04-29T10:45:29;17.10;99.90
40454;DHT22;26160;51.858;4.398;2023-04-29T10:50:33;17.80;99.90
40454;DHT22;26160;51.858;4.398;2023-04-29T10:53:03;18.20;99.90
40454;DHT22;26160;51.858;4.398;2023-04-29T10:55:30;18.40;99.90
40454;DHT22;26160;51.858;4.398;2023-04-29T10:57:57;18.60;99.90
40454;DHT22;26160;51.858;4.398;2023-04-29T11:00:27;18.50;99.90
40454;DHT22;26160;51.858;4.398;2023-04-29T11:02:54;18.40;99.90
40454;DHT22;26160;51.858;4.398;2023-04-29T11:05:34;18.70;99.90
40454;DHT22;26160;51.858;4.398;2023-04-29T11:08:10;18.80;99.90
40454;DHT22;26160;51.858;4.398;2023-04-29T11:10:43;19.00;99.90
40454;DHT22;26160;51.858;4.398;2023-04-29T11:13:28;19.40;99.90
40454;DHT22;26160;51.858;4.398;2023-04-29T11:16:08;19.30;99.90
40454;DHT22;26160;51.858;4.398;2023-04-29T11:18:36;18.90;99.90
40454;DHT22;26160;51.858;4.398;2023-04-29T11:21:22;19.50;99.90
40454;DHT22;26160;51.858;4.398;2023-04-29T11:23:50;20.00;99.90
40454;DHT22;26160;51.858;4.398;2023-04-29T11:26:19;20.10;99.90
40454;DHT22;26160;51.858;4.398;2023-04-29T11:28:46;19.80;99.90
40454;DHT22;26160;51.858;4.398;2023-04-29T11:31:13;20.00;99.90
40454;DHT22;26160;51.858;4.398;2023-04-29T11:33:39;20.10;99.90
40454;DHT22;26160;51.858;4.398;2023-04-29T11:36:05;20.00;99.90
40454;DHT22;26160;51.858;4.398;2023-04-29T11:38:31;20.70;99.90
40454;DHT22;26160;51.858;4.398;2023-04-29T11:40:59;20.80;99.90
40454;DHT22;26160;51.858;4.398;2023-04-29T11:43:26;20.70;99.90
40454;DHT22;26160;51.858;4.398;2023-04-29T11:45:52;20.70;99.90
40454;DHT22;26160;51.858;4.398;2023-04-29T11:48:22;20.30;99.90
40454;DHT22;26160;51.858;4.398;2023-04-29T11:50:52;19.80;99.90
40454;DHT22;26160;51.858;4.398;2023-04-29T11:53:20;18.80;99.90
40454;DHT22;26160;51.858;4.398;2023-04-29T11:55:47;18.00;99.90
40454;DHT22;26160;51.858;4.398;2023-04-29T11:58:16;18.20;99.90
40454;DHT22;26160;51.858;4.398;2023-04-29T12:00:43;19.00;99.90
40454;DHT22;26160;51.858;4.398;2023-04-29T12:03:17;19.80;99.90
40454;DHT22;26160;51.858;4.398;2023-04-29T12:05:53;20.30;99.90
40454;DHT22;26160;51.858;4.398;2023-04-29T12:08:21;20.40;99.90
40454;DHT22;26160;51.858;4.398;2023-04-29T12:10:47;20.70;99.90
40454;DHT22;26160;51.858;4.398;2023-04-29T12:13:18;20.00;99.90
40454;DHT22;26160;51.858;4.398;2023-04-29T12:15:49;19.30;99.90
40454;DHT22;26160;51.858;4.398;2023-04-29T12:18:19;18.90;99.90
40454;DHT22;26160;51.858;4.398;2023-04-29T12:20:48;19.50;99.90
40454;DHT22;26160;51.858;4.398;2023-04-29T12:23:18;20.30;99.90
40454;DHT22;26160;51.858;4.398;2023-04-29T12:25:58;20.00;99.90
40454;DHT22;26160;51.858;4.398;2023-04-29T12:28:25;19.30;99.90
40454;DHT22;26160;51.858;4.398;2023-04-29T12:30:53;19.10;99.90
40454;DHT22;26160;51.858;4.398;2023-04-29T12:33:21;18.90;99.90
40454;DHT22;26160;51.858;4.398;2023-04-29T12:35:48;19.20;99.90
40454;DHT22;26160;51.858;4.398;2023-04-29T12:38:19;19.50;99.90
40454;DHT22;26160;51.858;4.398;2023-04-29T12:40:45;19.40;99.90
40454;DHT22;26160;51.858;4.398;2023-04-29T12:43:11;18.90;99.90
40454;DHT22;26160;51.858;4.398;2023-04-29T12:45:38;18.90;99.90
40454;DHT22;26160;51.858;4.398;2023-04-29T12:48:04;18.60;99.90
40454;DHT22;26160;51.858;4.398;2023-04-29T12:50:32;18.70;99.90
40454;DHT22;26160;51.858;4.398;2023-04-29T12:52:59;18.50;99.90
40454;DHT22;26160;51.858;4.398;2023-04-29T12:55:26;17.90;99.90
40454;DHT22;26160;51.858;4.398;2023-04-29T12:57:52;17.90;99.90
40454;DHT22;26160;51.858;4.398;2023-04-29T13:00:18;18.40;99.90
40454;DHT22;26160;51.858;4.398;2023-04-29T13:02:46;18.80;99.90
40454;DHT22;26160;51.858;4.398;2023-04-29T13:05:12;19.10;99.90
40454;DHT22;26160;51.858;4.398;2023-04-29T13:07:38;19.50;99.90
40454;DHT22;26160;51.858;4.398;2023-04-29T13:10:05;19.80;99.90
40454;DHT22;26160;51.858;4.398;2023-04-29T13:12:32;19.10;99.90
40454;DHT22;26160;51.858;4.398;2023-04-29T13:14:58;18.70;99.90
40454;DHT22;26160;51.858;4.398;2023-04-29T13:17:24;19.00;99.90
40454;DHT22;26160;51.858;4.398;2023-04-29T13:19:50;19.20;99.90
40454;DHT22;26160;51.858;4.398;2023-04-29T13:22:16;19.10;99.90
40454;DHT22;26160;51.858;4.398;2023-04-29T13:24:43;19.60;99.90
40454;DHT22;26160;51.858;4.398;2023-04-29T13:27:09;19.90;99.90
40454;DHT22;26160;51.858;4.398;2023-04-29T13:29:35;20.30;99.90
40454;DHT22;26160;51.858;4.398;2023-04-29T13:32:01;20.50;99.90
40454;DHT22;26160;51.858;4.398;2023-04-29T13:34:27;20.40;99.90
40454;DHT22;26160;51.858;4.398;2023-04-29T13:36:54;19.90;99.90
40454;DHT22;26160;51.858;4.398;2023-04-29T13:39:20;19.90;99.90
40454;DHT22;26160;51.858;4.398;2023-04-29T13:41:48;19.80;99.90
40454;DHT22;26160;51.858;4.398;2023-04-29T13:44:14;20.00;99.90
40454;DHT22;26160;51.858;4.398;2023-04-29T13:46:40;20.30;99.90
40454;DHT22;26160;51.858;4.398;2023-04-29T13:49:06;20.30;99.90
40454;DHT22;26160;51.858;4.398;2023-04-29T13:51:32;20.30;99.90
40454;DHT22;26160;51.858;4.398;2023-04-29T13:53:58;20.20;99.90
40454;DHT22;26160;51.858;4.398;2023-04-29T13:56:24;19.70;99.90
40454;DHT22;26160;51.858;4.398;2023-04-29T13:58:51;19.70;99.90
40454;DHT22;26160;51.858;4.398;2023-04-29T14:01:17;19.50;99.90
40454;DHT22;26160;51.858;4.398;2023-04-29T14:03:43;19.40;99.90
40454;DHT22;26160;51.858;4.398;2023-04-29T14:06:10;18.70;99.90
40454;DHT22;26160;51.858;4.398;2023-04-29T14:08:36;18.30;99.90
40454;DHT22;26160;51.858;4.398;2023-04-29T14:11:02;17.80;99.90
40454;DHT22;26160;51.858;4.398;2023-04-29T14:13:28;17.50;99.90
40454;DHT22;26160;51.858;4.398;2023-04-29T14:15:55;17.10;99.90
40454;DHT22;26160;51.858;4.398;2023-04-29T14:18:21;16.90;99.90
40454;DHT22;26160;51.858;4.398;2023-04-29T14:20:47;16.50;99.90
40454;DHT22;26160;51.858;4.398;2023-04-29T14:23:13;16.90;99.90
40454;DHT22;26160;51.858;4.398;2023-04-29T14:25:39;17.90;99.90
40454;DHT22;26160;51.858;4.398;2023-04-29T14:28:05;18.20;99.90
40454;DHT22;26160;51.858;4.398;2023-04-29T14:30:32;18.50;99.90
40454;DHT22;26160;51.858;4.398;2023-04-29T14:32:58;18.50;99.90
40454;DHT22;26160;51.858;4.398;2023-04-29T14:35:24;18.20;99.90
40454;DHT22;26160;51.858;4.398;2023-04-29T14:37:50;18.00;99.90
40454;DHT22;26160;51.858;4.398;2023-04-29T14:40:16;17.70;99.90
40454;DHT22;26160;51.858;4.398;2023-04-29T14:42:42;17.20;99.90
40454;DHT22;26160;51.858;4.398;2023-04-29T14:45:09;16.80;99.90
40454;DHT22;26160;51.858;4.398;2023-04-29T14:47:35;16.60;99.90
40454;DHT22;26160;51.858;4.398;2023-04-29T14:50:01;16.80;99.90
40454;DHT22;26160;51.858;4.398;2023-04-29T14:52:28;16.50;99.90
40454;DHT22;26160;51.858;4.398;2023-04-29T14:54:55;16.30;99.90
40454;DHT22;26160;51.858;4.398;2023-04-29T14:57:21;16.50;99.90
40454;DHT22;26160;51.858;4.398;2023-04-29T14:59:47;16.80;99.90
40454;DHT22;26160;51.858;4.398;2023-04-29T15:02:14;16.80;99.90
40454;DHT22;26160;51.858;4.398;2023-04-29T15:04:40;16.80;99.90
40454;DHT22;26160;51.858;4.398;2023-04-29T15:07:13;17.00;99.90
40454;DHT22;26160;51.858;4.398;2023-04-29T15:09:40;17.00;99.90
40454;DHT22;26160;51.858;4.398;2023-04-29T15:12:07;17.20;99.90
40454;DHT22;26160;51.858;4.398;2023-04-29T15:14:34;17.00;99.90
40454;DHT22;26160;51.858;4.398;2023-04-29T15:17:00;17.20;99.90
40454;DHT22;26160;51.858;4.398;2023-04-29T15:19:26;17.20;99.90
40454;DHT22;26160;51.858;4.398;2023-04-29T15:21:52;17.20;99.90
40454;DHT22;26160;51.858;4.398;2023-04-29T15:24:18;17.20;99.90
40454;DHT22;26160;51.858;4.398;2023-04-29T15:26:44;17.30;99.90
40454;DHT22;26160;51.858;4.398;2023-04-29T15:29:11;17.40;99.90
40454;DHT22;26160;51.858;4.398;2023-04-29T15:31:37;17.50;99.90
40454;DHT22;26160;51.858;4.398;2023-04-29T15:34:03;17.50;99.90
40454;DHT22;26160;51.858;4.398;2023-04-29T15:36:30;17.70;99.90
40454;DHT22;26160;51.858;4.398;2023-04-29T15:38:58;17.90;99.90
40454;DHT22;26160;51.858;4.398;2023-04-29T15:41:25;18.00;99.90
40454;DHT22;26160;51.858;4.398;2023-04-29T15:43:51;17.80;99.90
40454;DHT22;26160;51.858;4.398;2023-04-29T15:46:18;17.70;99.90
40454;DHT22;26160;51.858;4.398;2023-04-29T15:48:44;17.80;99.90
40454;DHT22;26160;51.858;4.398;2023-04-29T15:51:10;17.90;99.90
40454;DHT22;26160;51.858;4.398;2023-04-29T15:53:42;18.00;99.90
40454;DHT22;26160;51.858;4.398;2023-04-29T15:56:09;17.90;99.90
40454;DHT22;26160;51.858;4.398;2023-04-29T15:58:36;17.70;99.90
40454;DHT22;26160;51.858;4.398;2023-04-29T16:01:02;17.80;99.90
40454;DHT22;26160;51.858;4.398;2023-04-29T16:03:29;17.70;99.90
40454;DHT22;26160;51.858;4.398;2023-04-29T16:05:55;17.70;99.90
40454;DHT22;26160;51.858;4.398;2023-04-29T16:08:23;17.80;99.90
40454;DHT22;26160;51.858;4.398;2023-04-29T16:10:49;17.70;99.90